createdAt,value
2017-07-05T00:01:50.351Z,75.46
2017-07-05T00:04:16.854Z,73.71
2017-07-05T00:06:43.219Z,72.70
2017-07-05T00:09:09.588Z,74.34
2017-07-05T00:11:35.977Z,72.09
2017-07-05T00:14:02.463Z,69.11
2017-07-05T00:16:28.916Z,68.67
2017-07-05T00:18:55.245Z,68.58
2017-07-05T00:21:21.671Z,69.41
2017-07-05T00:23:48.089Z,72.73
2017-07-05T00:26:14.460Z,71.44
2017-07-05T00:28:40.817Z,73.88
2017-07-05T00:31:07.233Z,79.58
2017-07-05T00:33:33.600Z,79.41
2017-07-05T00:35:59.979Z,76.07
2017-07-05T00:38:26.322Z,77.38
2017-07-05T00:40:52.674Z,79.93
2017-07-05T00:43:19.085Z,78.82
2017-07-05T00:45:45.469Z,78.76
2017-07-05T00:48:11.857Z,74.85
2017-07-05T00:50:38.226Z,70.80
2017-07-05T00:53:04.599Z,70.64
2017-07-05T00:55:30.968Z,72.39
2017-07-05T00:57:57.371Z,70.43
2017-07-05T01:00:23.738Z,72.53
2017-07-05T01:02:50.116Z,78.87
2017-07-05T01:05:16.508Z,77.96
2017-07-05T01:07:42.855Z,76.87
2017-07-05T01:10:09.204Z,72.90
2017-07-05T01:12:35.572Z,70.91
2017-07-05T01:15:01.931Z,70.62
2017-07-05T01:17:28.294Z,72.23
2017-07-05T01:19:54.660Z,74.71
2017-07-05T01:22:21.042Z,76.31
2017-07-05T01:24:47.414Z,78.09
2017-07-05T01:27:13.779Z,75.97
2017-07-05T01:29:40.176Z,74.67
2017-07-05T01:32:06.679Z,72.67
2017-07-05T01:34:33.101Z,73.70
2017-07-05T01:37:04.931Z,75.47
2017-07-05T01:39:37.101Z,78.93
2017-07-05T01:42:08.761Z,76.05
2017-07-05T01:44:35.361Z,79.16
2017-07-05T01:47:03.014Z,76.51
2017-07-05T01:49:29.655Z,75.47
2017-07-05T01:51:56.141Z,77.89
2017-07-05T01:54:23.046Z,75.09
2017-07-05T01:56:49.569Z,80.12
2017-07-05T01:59:17.079Z,76.44
2017-07-05T02:01:43.604Z,76.25
2017-07-05T02:04:12.140Z,75.55
2017-07-05T02:06:43.889Z,71.70
2017-07-05T02:09:10.356Z,70.46
2017-07-05T02:11:40.255Z,70.92
2017-07-05T02:14:06.760Z,70.54
2017-07-05T02:16:33.198Z,71.01
2017-07-05T02:19:00.963Z,74.75
2017-07-05T02:21:27.358Z,77.35
2017-07-05T02:23:53.811Z,81.44
2017-07-05T02:26:20.155Z,83.07
2017-07-05T02:28:52.071Z,83.29
2017-07-05T02:31:24.209Z,84.15
2017-07-05T02:33:50.920Z,82.16
2017-07-05T02:36:18.502Z,84.20
2017-07-05T02:38:50.183Z,82.16
2017-07-05T02:41:16.765Z,75.91
2017-07-05T02:43:44.091Z,72.67
2017-07-05T02:46:20.653Z,71.83
2017-07-05T02:48:52.876Z,74.94
2017-07-05T02:51:19.467Z,78.82
2017-07-05T02:53:51.095Z,74.01
2017-07-05T02:56:22.646Z,71.98
2017-07-05T02:58:49.613Z,73.97
2017-07-05T03:01:17.207Z,81.64
2017-07-05T03:03:44.583Z,83.55
2017-07-05T03:06:16.272Z,83.85
2017-07-05T03:08:45.985Z,77.22
2017-07-05T03:11:15.730Z,79.76
2017-07-05T03:13:42.245Z,81.31
2017-07-05T03:16:09.557Z,80.54
2017-07-05T03:18:41.089Z,78.94
2017-07-05T03:21:07.694Z,80.08
2017-07-05T03:23:35.204Z,80.00
2017-07-05T03:26:02.040Z,74.85
2017-07-05T03:28:28.940Z,73.52
2017-07-05T03:30:55.420Z,78.30
2017-07-05T03:33:22.496Z,82.94
2017-07-05T03:35:54.246Z,74.47
2017-07-05T03:38:21.211Z,73.45
2017-07-05T03:40:47.853Z,78.17
2017-07-05T03:43:19.733Z,73.65
2017-07-05T03:45:46.432Z,74.82
2017-07-05T03:48:13.367Z,73.09
2017-07-05T03:50:40.008Z,80.05
2017-07-05T03:53:06.393Z,78.98
2017-07-05T03:55:33.452Z,77.92
2017-07-05T03:57:59.907Z,79.87
2017-07-05T04:00:31.796Z,75.98
2017-07-05T04:02:58.259Z,73.99
2017-07-05T04:05:24.781Z,72.08
2017-07-05T04:07:51.560Z,73.83
2017-07-05T04:10:23.822Z,73.25
2017-07-05T04:12:51.030Z,76.03
2017-07-05T04:15:17.879Z,76.90
2017-07-05T04:17:49.546Z,75.72
2017-07-05T04:20:15.906Z,77.30
2017-07-05T04:22:51.573Z,81.68
2017-07-05T04:25:23.273Z,82.02
2017-07-05T04:27:51.327Z,78.54
2017-07-05T04:30:17.793Z,76.47
2017-07-05T04:32:47.141Z,76.23
2017-07-05T04:35:13.661Z,74.31
2017-07-05T04:37:45.508Z,73.19
2017-07-05T04:40:12.186Z,74.41
2017-07-05T04:42:43.818Z,73.67
2017-07-05T04:45:10.458Z,75.61
2017-07-05T04:47:42.041Z,73.26
2017-07-05T04:50:08.395Z,73.48
2017-07-05T04:52:34.908Z,73.72
2017-07-05T04:55:01.344Z,74.03
2017-07-05T04:57:28.125Z,74.36
2017-07-05T04:59:55.606Z,74.44
2017-07-05T05:02:22.122Z,73.77
2017-07-05T05:04:48.637Z,74.04
2017-07-05T05:07:16.075Z,73.77
2017-07-05T05:09:42.546Z,74.10
2017-07-05T05:12:14.080Z,74.75
2017-07-05T05:14:46.120Z,74.53
2017-07-05T05:17:15.704Z,75.00
2017-07-05T05:19:42.290Z,74.79
2017-07-05T05:22:08.944Z,75.63
2017-07-05T05:24:35.314Z,74.92
2017-07-05T05:27:06.770Z,74.75
2017-07-05T05:29:33.167Z,74.80
2017-07-05T05:31:59.595Z,73.97
2017-07-05T05:34:31.481Z,74.51
2017-07-05T05:37:03.270Z,76.98
2017-07-05T05:39:30.063Z,75.51
2017-07-05T05:42:02.134Z,75.47
2017-07-05T05:44:34.233Z,74.91
2017-07-05T05:47:00.948Z,75.22
2017-07-05T05:49:27.334Z,74.04
2017-07-05T05:51:54.547Z,74.89
2017-07-05T05:54:20.979Z,79.05
2017-07-05T05:56:47.308Z,76.40
2017-07-05T05:59:13.805Z,76.99
2017-07-05T06:01:40.203Z,75.31
2017-07-05T06:04:10.032Z,78.46
2017-07-05T06:06:37.240Z,74.88
2017-07-05T06:09:03.785Z,74.37
2017-07-05T06:11:30.302Z,74.77
2017-07-05T06:13:56.811Z,78.29
2017-07-05T06:16:23.252Z,78.83
2017-07-05T06:18:49.917Z,76.08
2017-07-05T06:21:16.866Z,75.55
2017-07-05T06:23:48.525Z,76.61
2017-07-05T06:26:15.231Z,77.30
2017-07-05T06:28:42.997Z,74.96
2017-07-05T06:31:09.469Z,75.04
2017-07-05T06:33:36.971Z,74.27
2017-07-05T06:36:03.969Z,74.99
2017-07-05T06:38:31.946Z,74.41
2017-07-05T06:40:58.685Z,74.88
2017-07-05T06:43:25.543Z,73.95
2017-07-05T06:45:58.374Z,73.27
2017-07-05T06:48:25.954Z,72.18
2017-07-05T06:50:52.530Z,71.14
2017-07-05T06:53:24.540Z,71.73
2017-07-05T06:55:56.487Z,71.77
2017-07-05T06:58:24.267Z,72.70
2017-07-05T07:01:00.123Z,73.05
2017-07-05T07:03:31.999Z,72.93
2017-07-05T07:05:58.682Z,73.22
2017-07-05T07:08:25.323Z,71.32
2017-07-05T07:10:52.790Z,71.44
2017-07-05T07:13:20.746Z,71.44
2017-07-05T07:15:47.654Z,69.65
2017-07-05T07:18:15.055Z,69.67
2017-07-05T07:20:42.397Z,71.06
2017-07-05T07:23:09.653Z,67.58
2017-07-05T07:25:36.468Z,69.12
2017-07-05T07:28:03.972Z,67.25
2017-07-05T07:30:30.897Z,66.68
2017-07-05T07:32:57.436Z,67.22
2017-07-05T07:35:24.241Z,65.18
2017-07-05T07:37:56.693Z,63.17
2017-07-05T07:40:23.246Z,63.52
2017-07-05T07:42:55.237Z,63.07
2017-07-05T07:45:24.843Z,61.75
2017-07-05T07:47:51.361Z,63.16
2017-07-05T07:50:19.038Z,61.55
2017-07-05T07:52:46.607Z,60.93
2017-07-05T07:55:13.291Z,60.33
2017-07-05T07:57:40.144Z,59.77
2017-07-05T08:00:06.662Z,60.74
2017-07-05T08:02:38.663Z,59.83
2017-07-05T08:05:05.193Z,59.53
2017-07-05T08:07:38.827Z,60.28
2017-07-05T08:10:05.312Z,57.46
2017-07-05T08:12:31.768Z,58.18
2017-07-05T08:14:58.342Z,57.43
2017-07-05T08:17:24.720Z,58.77
2017-07-05T08:19:56.641Z,57.40
2017-07-05T08:22:23.049Z,57.95
2017-07-05T08:24:49.567Z,57.30
2017-07-05T08:27:15.997Z,58.17
2017-07-05T08:29:42.755Z,57.78
2017-07-05T08:32:09.585Z,56.61
2017-07-05T08:34:36.402Z,57.44
2017-07-05T08:37:03.790Z,57.98
2017-07-05T08:39:30.437Z,57.44
2017-07-05T08:41:56.803Z,57.16
2017-07-05T08:44:28.654Z,56.29
2017-07-05T08:46:55.154Z,54.47
2017-07-05T08:49:26.912Z,54.13
2017-07-05T08:51:53.461Z,54.77
2017-07-05T08:54:19.874Z,54.34
2017-07-05T08:56:46.528Z,52.90
2017-07-05T08:59:18.177Z,52.77
2017-07-05T09:01:50.240Z,53.41
2017-07-05T09:04:17.798Z,52.35
2017-07-05T09:06:44.260Z,53.42
2017-07-05T09:09:10.790Z,53.78
2017-07-05T09:11:42.801Z,53.65
2017-07-05T09:14:09.346Z,52.88
2017-07-05T09:16:41.987Z,52.33
2017-07-05T09:19:08.448Z,51.14
2017-07-05T09:21:35.305Z,51.83
2017-07-05T09:24:01.752Z,51.84
2017-07-05T09:26:28.241Z,51.83
2017-07-05T09:29:00.065Z,54.09
2017-07-05T09:31:26.506Z,51.65
2017-07-05T09:33:52.933Z,52.38
2017-07-05T09:36:19.692Z,51.28
2017-07-05T09:38:46.077Z,49.41
2017-07-05T09:41:18.084Z,49.11
2017-07-05T09:43:44.928Z,48.56
2017-07-05T09:46:11.627Z,48.61
2017-07-05T09:48:38.932Z,49.38
2017-07-05T09:51:05.396Z,53.06
2017-07-05T09:53:31.846Z,51.58
2017-07-05T09:55:58.335Z,51.32
2017-07-05T09:58:24.837Z,51.29
2017-07-05T10:00:56.381Z,52.07
2017-07-05T10:03:22.953Z,52.64
2017-07-05T10:05:49.310Z,52.46
2017-07-05T10:08:16.190Z,52.71
2017-07-05T10:10:42.574Z,51.74
2017-07-05T10:13:09.403Z,53.03
2017-07-05T10:15:41.917Z,51.16
2017-07-05T10:18:08.410Z,51.70
2017-07-05T10:20:35.448Z,51.91
2017-07-05T10:23:01.868Z,52.67
2017-07-05T10:25:28.323Z,50.23
2017-07-05T10:27:58.690Z,49.82
2017-07-05T10:30:25.274Z,48.24
2017-07-05T10:32:55.019Z,49.47
2017-07-05T10:35:21.645Z,46.46
2017-07-05T10:37:47.989Z,46.89
2017-07-05T10:40:14.863Z,46.16
2017-07-05T10:42:46.683Z,45.28
2017-07-05T10:45:16.356Z,47.34
2017-07-05T10:47:42.883Z,45.86
2017-07-05T10:50:15.099Z,46.29
2017-07-05T10:52:42.099Z,46.87
2017-07-05T10:55:08.528Z,46.85
2017-07-05T10:57:34.900Z,46.76
2017-07-05T11:00:01.762Z,46.37
2017-07-05T11:02:28.424Z,47.21
2017-07-05T11:04:54.987Z,45.88
2017-07-05T11:07:21.485Z,45.69
2017-07-05T11:09:53.801Z,44.86
2017-07-05T11:12:21.255Z,45.45
2017-07-05T11:14:47.685Z,44.58
2017-07-05T11:17:14.211Z,45.23
2017-07-05T11:19:46.133Z,43.42
2017-07-05T11:22:17.779Z,43.43
2017-07-05T11:24:49.343Z,42.41
2017-07-05T11:27:20.825Z,41.96
2017-07-05T11:29:48.087Z,41.27
2017-07-05T11:32:14.715Z,41.94
2017-07-05T11:34:44.346Z,42.21
2017-07-05T11:37:11.504Z,41.05
2017-07-05T11:39:37.960Z,40.03
2017-07-05T11:42:04.673Z,40.23
2017-07-05T11:44:31.378Z,38.78
2017-07-05T11:47:02.936Z,39.31
2017-07-05T11:49:36.456Z,39.16
2017-07-05T11:52:03.033Z,39.77
2017-07-05T11:54:35.036Z,39.48
2017-07-05T11:57:01.643Z,40.72
2017-07-05T11:59:28.010Z,37.38
2017-07-05T12:01:54.653Z,39.38
2017-07-05T12:04:21.623Z,40.74
2017-07-05T12:06:48.293Z,41.02
2017-07-05T12:09:14.699Z,40.09
2017-07-05T12:11:41.091Z,40.05
2017-07-05T12:14:07.622Z,39.09
2017-07-05T12:16:34.148Z,36.65
2017-07-05T12:19:01.384Z,34.55
2017-07-05T12:21:27.989Z,35.15
2017-07-05T12:23:54.701Z,35.75
2017-07-05T12:26:21.145Z,36.20
2017-07-05T12:28:47.907Z,35.59
2017-07-05T12:31:14.720Z,36.89
2017-07-05T12:33:41.140Z,36.63
2017-07-05T12:36:07.612Z,38.72
2017-07-05T12:38:34.097Z,37.80
2017-07-05T12:41:01.272Z,38.46
2017-07-05T12:43:31.188Z,37.97
2017-07-05T12:45:57.661Z,36.70
2017-07-05T12:48:25.000Z,37.54
2017-07-05T12:50:51.351Z,38.81
2017-07-05T12:53:17.766Z,38.06
2017-07-05T12:55:45.349Z,38.06
2017-07-05T12:58:12.889Z,36.23
2017-07-05T13:00:39.331Z,36.17
2017-07-05T13:03:06.085Z,38.19
2017-07-05T13:05:32.674Z,38.87
2017-07-05T13:07:59.201Z,39.55
2017-07-05T13:10:25.639Z,38.59
2017-07-05T13:12:52.011Z,39.29
2017-07-05T13:15:18.416Z,38.43
2017-07-05T13:17:48.264Z,37.44
2017-07-05T13:20:18.914Z,37.76
2017-07-05T13:22:45.454Z,38.40
2017-07-05T13:25:17.089Z,37.55
2017-07-05T13:27:43.599Z,37.96
2017-07-05T13:30:10.232Z,38.86
2017-07-05T13:32:36.789Z,39.09
2017-07-05T13:35:10.228Z,38.30
2017-07-05T13:37:36.603Z,38.20
2017-07-05T13:40:04.247Z,37.54
2017-07-05T13:42:37.241Z,38.57
2017-07-05T13:45:03.864Z,38.48
2017-07-05T13:47:31.708Z,37.24
2017-07-05T13:49:58.684Z,38.75
2017-07-05T13:52:31.021Z,38.52
2017-07-05T13:54:57.590Z,39.37
2017-07-05T13:57:29.131Z,37.40
2017-07-05T13:59:55.576Z,37.73
2017-07-05T14:02:21.916Z,38.42
2017-07-05T14:04:48.262Z,36.72
2017-07-05T14:07:14.952Z,36.35
2017-07-05T14:09:41.703Z,35.73
2017-07-05T14:12:08.581Z,36.54
2017-07-05T14:14:34.998Z,37.01
2017-07-05T14:17:01.356Z,37.41
2017-07-05T14:19:27.811Z,37.62
2017-07-05T14:21:54.188Z,35.63
2017-07-05T14:24:21.178Z,36.93
2017-07-05T14:26:47.727Z,39.12
2017-07-05T14:29:14.122Z,37.65
2017-07-05T14:31:40.462Z,36.50
2017-07-05T14:34:07.080Z,34.42
2017-07-05T14:36:33.476Z,35.61
2017-07-05T14:38:59.832Z,35.97
2017-07-05T14:41:26.389Z,34.73
2017-07-05T14:43:53.267Z,35.65
2017-07-05T14:46:19.667Z,36.10
2017-07-05T14:48:46.316Z,36.43
2017-07-05T14:51:12.675Z,36.35
2017-07-05T14:53:39.038Z,38.28
2017-07-05T14:56:05.429Z,37.73
2017-07-05T14:58:31.784Z,37.91
2017-07-05T15:00:58.141Z,39.30
2017-07-05T15:03:24.520Z,39.48
2017-07-05T15:05:50.905Z,38.43
2017-07-05T15:08:17.253Z,37.78
2017-07-05T15:10:43.583Z,38.96
2017-07-05T15:13:09.928Z,38.63
2017-07-05T15:15:36.284Z,39.33
2017-07-05T15:18:02.613Z,37.98
2017-07-05T15:20:29.039Z,40.21
2017-07-05T15:22:55.387Z,38.87
2017-07-05T15:25:21.779Z,36.65
2017-07-05T15:27:48.109Z,36.79
2017-07-05T15:30:14.461Z,36.56
2017-07-05T15:32:40.790Z,35.61
2017-07-05T15:35:07.145Z,35.34
2017-07-05T15:37:33.505Z,37.61
2017-07-05T15:39:59.913Z,38.83
2017-07-05T15:42:26.297Z,38.21
2017-07-05T15:44:52.636Z,37.90
2017-07-05T15:47:18.975Z,38.06
2017-07-05T15:49:45.293Z,38.88
2017-07-05T15:52:11.702Z,38.19
2017-07-05T15:54:38.058Z,39.22
2017-07-05T15:57:04.399Z,37.63
2017-07-05T15:59:30.790Z,38.87
2017-07-05T16:01:57.211Z,39.45
2017-07-05T16:04:23.591Z,39.64
2017-07-05T16:06:49.947Z,39.34
2017-07-05T16:09:16.330Z,38.73
2017-07-05T16:11:42.734Z,38.93
2017-07-05T16:14:09.077Z,38.56
2017-07-05T16:16:35.417Z,39.06
2017-07-05T16:19:01.932Z,40.19
2017-07-05T16:21:28.289Z,39.34
2017-07-05T16:23:54.711Z,39.57
2017-07-05T16:26:21.039Z,39.09
2017-07-05T16:28:47.394Z,37.69
2017-07-05T16:31:15.336Z,38.62
2017-07-05T16:33:41.712Z,38.70
2017-07-05T16:36:08.069Z,38.86
2017-07-05T16:38:34.448Z,37.70
2017-07-05T16:41:00.764Z,38.59
2017-07-05T16:43:27.126Z,38.59
2017-07-05T16:45:53.459Z,39.54
2017-07-05T16:48:19.819Z,38.24
2017-07-05T16:50:46.183Z,39.03
2017-07-05T16:53:12.542Z,38.24
2017-07-05T16:55:38.917Z,38.70
2017-07-05T16:58:05.336Z,37.97
2017-07-05T17:00:31.705Z,39.11
2017-07-05T17:02:58.054Z,39.67
2017-07-05T17:05:24.421Z,39.06
2017-07-05T17:07:50.791Z,38.84
2017-07-05T17:10:17.156Z,39.03
2017-07-05T17:12:43.511Z,37.80
2017-07-05T17:15:09.889Z,38.55
2017-07-05T17:17:36.285Z,38.93
2017-07-05T17:20:02.644Z,38.91
2017-07-05T17:22:29.044Z,39.00
2017-07-05T17:24:55.392Z,39.49
2017-07-05T17:27:21.749Z,39.49
2017-07-05T17:29:48.127Z,38.56
2017-07-05T17:32:14.501Z,40.38
2017-07-05T17:34:40.872Z,40.24
2017-07-05T17:37:07.242Z,37.86
2017-07-05T17:39:33.582Z,38.72
2017-07-05T17:41:59.940Z,38.37
2017-07-05T17:44:26.342Z,39.55
2017-07-05T17:46:52.680Z,38.98
2017-07-05T17:49:19.037Z,39.17
2017-07-05T17:51:45.395Z,39.81
2017-07-05T17:54:11.770Z,38.69
2017-07-05T17:56:38.136Z,39.54
2017-07-05T17:59:04.510Z,39.81
2017-07-05T18:01:30.844Z,41.23
2017-07-05T18:03:57.281Z,41.56
2017-07-05T18:06:23.719Z,41.50
2017-07-05T18:08:50.065Z,40.29
2017-07-05T18:11:16.845Z,41.38
2017-07-05T18:13:43.336Z,40.03
2017-07-05T18:16:09.694Z,40.68
2017-07-05T18:18:36.559Z,40.47
2017-07-05T18:21:02.982Z,42.32
2017-07-05T18:23:29.339Z,44.20
2017-07-05T18:25:55.690Z,45.04
2017-07-05T18:28:22.064Z,45.30
2017-07-05T18:30:48.432Z,44.28
2017-07-05T18:33:14.859Z,44.93
2017-07-05T18:35:41.308Z,46.28
2017-07-05T18:38:07.691Z,47.05
2017-07-05T18:40:34.063Z,47.23
2017-07-05T18:43:00.480Z,47.44
2017-07-05T18:45:27.839Z,48.18
2017-07-05T18:47:54.302Z,47.97
2017-07-05T18:50:20.810Z,49.04
2017-07-05T18:52:47.194Z,49.81
2017-07-05T18:55:13.555Z,50.69
2017-07-05T18:57:39.897Z,51.09
2017-07-05T19:00:06.225Z,51.45
2017-07-05T19:02:32.624Z,50.58
2017-07-05T19:04:59.111Z,50.70
2017-07-05T19:07:25.470Z,50.55
2017-07-05T19:09:53.056Z,50.79
2017-07-05T19:12:19.415Z,50.12
2017-07-05T19:14:45.817Z,51.31
2017-07-05T19:17:12.206Z,52.20
2017-07-05T19:19:38.941Z,52.64
2017-07-05T19:22:05.759Z,52.99
2017-07-05T19:24:32.732Z,53.43
2017-07-05T19:26:59.426Z,54.14
2017-07-05T19:29:26.410Z,54.10
2017-07-05T19:31:52.893Z,54.33
2017-07-05T19:34:19.696Z,54.61
2017-07-05T19:36:46.461Z,55.19
2017-07-05T19:39:12.868Z,55.25
2017-07-05T19:41:40.770Z,54.68
2017-07-05T19:44:07.788Z,56.03
2017-07-05T19:46:34.175Z,54.55
2017-07-05T19:49:00.559Z,54.76
2017-07-05T19:51:26.962Z,54.50
2017-07-05T19:53:53.362Z,54.71
2017-07-05T19:56:19.770Z,54.98
2017-07-05T19:58:46.180Z,55.30
2017-07-05T20:01:12.591Z,55.46
2017-07-05T20:03:38.974Z,55.25
2017-07-05T20:06:05.820Z,55.65
2017-07-05T20:08:32.302Z,56.00
2017-07-05T20:10:58.806Z,56.03
2017-07-05T20:13:25.200Z,56.55
2017-07-05T20:15:51.855Z,56.69
2017-07-05T20:18:18.297Z,56.70
2017-07-05T20:20:44.652Z,58.27
2017-07-05T20:23:11.414Z,58.65
2017-07-05T20:25:37.779Z,59.16
2017-07-05T20:28:04.162Z,59.32
2017-07-05T20:30:30.535Z,58.89
2017-07-05T20:32:56.925Z,59.35
2017-07-05T20:35:23.291Z,58.85
2017-07-05T20:37:49.684Z,58.33
2017-07-05T20:40:16.035Z,58.20
2017-07-05T20:42:42.539Z,58.99
2017-07-05T20:45:09.157Z,58.72
2017-07-05T20:47:35.598Z,57.93
2017-07-05T20:50:02.023Z,59.10
2017-07-05T20:52:28.452Z,62.44
2017-07-05T20:54:54.824Z,58.94
2017-07-05T20:57:21.165Z,58.89
2017-07-05T20:59:47.549Z,63.88
2017-07-05T21:02:15.574Z,63.29
2017-07-05T21:04:46.538Z,62.04
2017-07-05T21:07:16.364Z,62.80
2017-07-05T21:09:42.904Z,62.85
2017-07-05T21:12:09.247Z,60.18
2017-07-05T21:14:35.626Z,58.75
2017-07-05T21:17:01.996Z,58.61
2017-07-05T21:19:28.389Z,58.98
2017-07-05T21:21:54.725Z,59.75
2017-07-05T21:24:21.216Z,59.45
2017-07-05T21:26:47.613Z,59.07
2017-07-05T21:29:14.005Z,60.05
2017-07-05T21:31:40.399Z,63.48
2017-07-05T21:34:06.797Z,65.65
2017-07-05T21:36:33.169Z,62.98
2017-07-05T21:38:59.827Z,64.43
2017-07-05T21:41:26.289Z,62.84
2017-07-05T21:43:52.671Z,60.72
2017-07-05T21:46:19.137Z,62.78
2017-07-05T21:48:45.516Z,60.58
2017-07-05T21:51:11.901Z,60.58
2017-07-05T21:53:38.274Z,60.61
2017-07-05T21:56:04.643Z,60.93
2017-07-05T21:58:31.010Z,60.59
2017-07-05T22:00:57.394Z,61.53
2017-07-05T22:03:23.775Z,62.29
2017-07-05T22:05:50.193Z,65.90
2017-07-05T22:08:16.618Z,69.06
2017-07-05T22:10:42.981Z,68.44
2017-07-05T22:13:09.338Z,65.48
2017-07-05T22:15:35.729Z,62.75
2017-07-05T22:18:02.171Z,61.84
2017-07-05T22:20:28.539Z,65.87
2017-07-05T22:22:54.897Z,67.09
2017-07-05T22:25:21.277Z,65.51
2017-07-05T22:27:47.638Z,68.33
2017-07-05T22:30:15.363Z,64.64
2017-07-05T22:32:41.865Z,63.31
2017-07-05T22:35:08.251Z,62.81
2017-07-05T22:37:34.605Z,64.91
2017-07-05T22:40:00.964Z,63.23
2017-07-05T22:42:27.323Z,62.96
2017-07-05T22:44:53.723Z,67.42
2017-07-05T22:47:20.175Z,71.01
2017-07-05T22:49:46.538Z,73.45
2017-07-05T22:52:12.926Z,74.29
2017-07-05T22:54:39.289Z,75.20
2017-07-05T22:57:05.632Z,73.58
2017-07-05T22:59:32.074Z,73.12
2017-07-05T23:01:58.464Z,70.15
2017-07-05T23:04:24.842Z,66.13
2017-07-05T23:06:51.253Z,64.27
2017-07-05T23:09:17.607Z,64.07
2017-07-05T23:11:43.957Z,64.84
2017-07-05T23:14:10.393Z,64.11
2017-07-05T23:16:36.736Z,65.10
2017-07-05T23:19:03.158Z,64.97
2017-07-05T23:21:29.527Z,64.19
2017-07-05T23:23:55.978Z,72.60
2017-07-05T23:26:22.344Z,75.71
2017-07-05T23:28:48.759Z,74.51
2017-07-05T23:31:16.265Z,74.57
2017-07-05T23:33:43.334Z,72.50
2017-07-05T23:36:09.856Z,72.40
2017-07-05T23:38:38.276Z,72.63
2017-07-05T23:41:04.762Z,73.64
2017-07-05T23:43:31.230Z,73.19
2017-07-05T23:45:57.692Z,71.40
2017-07-05T23:48:24.041Z,67.47
2017-07-05T23:50:50.585Z,66.21
2017-07-05T23:53:17.432Z,65.97
2017-07-05T23:55:44.346Z,66.30
2017-07-05T23:58:11.218Z,71.12
